createdAt,value
2023-02-13T00:00:57.480Z,2.75
2023-02-13T00:03:25.041Z,2.33
2023-02-13T00:05:52.473Z,2.60
2023-02-13T00:08:19.860Z,2.83
2023-02-13T00:10:48.037Z,2.20
2023-02-13T00:13:15.579Z,2.60
2023-02-13T00:15:43.062Z,2.58
2023-02-13T00:18:10.536Z,2.38
2023-02-13T00:20:37.864Z,2.08
2023-02-13T00:23:05.320Z,2.28
2023-02-13T00:25:32.738Z,2.10
2023-02-13T00:28:00.207Z,2.28
2023-02-13T00:30:28.284Z,2.20
2023-02-13T00:32:57.073Z,2.28
2023-02-13T00:35:25.346Z,2.08
2023-02-13T00:37:53.436Z,2.47
2023-02-13T00:40:25.297Z,2.50
2023-02-13T00:42:52.687Z,2.07
2023-02-13T00:45:20.205Z,1.75
2023-02-13T00:47:47.967Z,1.88
2023-02-13T00:50:15.535Z,1.95
2023-02-13T00:52:43.145Z,2.10
2023-02-13T00:55:10.515Z,1.60
2023-02-13T00:57:37.979Z,1.77
2023-02-13T01:00:05.757Z,2.88
2023-02-13T01:02:36.292Z,2.20
2023-02-13T01:05:03.839Z,2.25
2023-02-13T01:07:31.337Z,2.53
2023-02-13T01:09:58.732Z,2.45
2023-02-13T01:12:27.595Z,2.20
2023-02-13T01:14:55.088Z,2.22
2023-02-13T01:17:22.577Z,2.20
2023-02-13T01:19:50.017Z,2.30
2023-02-13T01:22:17.387Z,2.42
2023-02-13T01:24:44.776Z,2.58
2023-02-13T01:27:12.314Z,2.60
2023-02-13T01:29:39.735Z,2.13
2023-02-13T01:32:07.237Z,2.00
2023-02-13T01:34:34.813Z,2.05
2023-02-13T01:37:02.216Z,3.28
2023-02-13T01:39:29.668Z,2.40
2023-02-13T01:41:57.094Z,2.45
2023-02-13T01:44:43.401Z,2.03
2023-02-13T01:47:12.959Z,2.50
2023-02-13T01:49:41.312Z,2.17
2023-02-13T01:52:09.630Z,2.67
2023-02-13T01:54:36.987Z,2.08
2023-02-13T01:57:10.519Z,2.45
2023-02-13T01:59:48.291Z,2.95
2023-02-13T02:02:16.440Z,2.05
2023-02-13T02:04:45.295Z,2.40
2023-02-13T02:07:22.252Z,2.50
2023-02-13T02:09:51.651Z,2.53
2023-02-13T02:12:29.534Z,2.45
2023-02-13T02:14:58.278Z,2.45
2023-02-13T02:17:26.720Z,2.50
2023-02-13T02:20:12.954Z,2.53
2023-02-13T02:22:58.995Z,2.05
2023-02-13T02:25:31.940Z,2.60
2023-02-13T02:28:04.100Z,2.60
2023-02-13T02:30:37.619Z,2.33
2023-02-13T02:33:24.043Z,2.38
2023-02-13T02:36:02.352Z,3.22
2023-02-13T02:38:52.507Z,2.20
2023-02-13T02:41:43.198Z,2.25
2023-02-13T02:44:16.133Z,2.45
2023-02-13T02:47:25.372Z,3.17
2023-02-13T02:50:12.404Z,1.95
2023-02-13T02:52:39.917Z,2.78
2023-02-13T02:55:14.588Z,2.20
2023-02-13T02:58:13.941Z,2.70
2023-02-13T03:01:00.742Z,2.65
2023-02-13T03:03:47.367Z,2.00
2023-02-13T03:06:18.966Z,2.20
2023-02-13T03:09:09.893Z,2.20
2023-02-13T03:11:56.413Z,2.53
2023-02-13T03:14:26.276Z,2.40
2023-02-13T03:17:12.736Z,1.83
2023-02-13T03:20:31.784Z,2.03
2023-02-13T03:22:59.357Z,2.33
2023-02-13T03:25:36.116Z,1.90
2023-02-13T03:28:22.471Z,1.83
2023-02-13T03:31:07.432Z,2.13
2023-02-13T03:33:47.943Z,1.90
2023-02-13T03:36:33.931Z,1.67
2023-02-13T03:39:07.554Z,1.88
2023-02-13T03:41:38.782Z,1.65
2023-02-13T03:44:09.323Z,1.60
2023-02-13T03:46:39.334Z,2.10
2023-02-13T03:49:25.904Z,2.00
2023-02-13T03:52:05.538Z,4.30
2023-02-13T03:55:06.508Z,1.52
2023-02-13T03:57:55.548Z,1.75
2023-02-13T04:00:24.625Z,1.60
2023-02-13T04:03:01.571Z,1.65
2023-02-13T04:05:31.090Z,1.30
2023-02-13T04:07:58.498Z,1.65
2023-02-13T04:10:27.187Z,1.80
2023-02-13T04:13:03.635Z,2.00
2023-02-13T04:15:33.932Z,1.75
2023-02-13T04:18:15.838Z,1.95
2023-02-13T04:20:43.478Z,2.08
2023-02-13T04:23:12.288Z,2.50
2023-02-13T04:25:41.151Z,1.60
2023-02-13T04:28:09.334Z,1.90
2023-02-13T04:30:37.170Z,2.08
2023-02-13T04:33:04.923Z,1.50
2023-02-13T04:35:32.423Z,1.85
2023-02-13T04:37:59.917Z,1.60
2023-02-13T04:40:27.555Z,1.95
2023-02-13T04:42:55.035Z,1.88
2023-02-13T04:45:22.441Z,2.00
2023-02-13T04:47:51.294Z,1.58
2023-02-13T04:50:19.106Z,1.45
2023-02-13T04:52:46.644Z,1.90
2023-02-13T04:55:14.871Z,1.70
2023-02-13T04:57:42.618Z,1.77
2023-02-13T05:00:11.398Z,1.50
2023-02-13T05:02:39.705Z,1.60
2023-02-13T05:05:07.381Z,1.58
2023-02-13T05:07:34.855Z,1.35
2023-02-13T05:10:02.293Z,1.90
2023-02-13T05:12:30.405Z,1.98
2023-02-13T05:14:57.972Z,1.83
2023-02-13T05:17:28.180Z,1.42
2023-02-13T05:19:56.009Z,1.88
2023-02-13T05:22:42.120Z,1.73
2023-02-13T05:25:09.665Z,1.70
2023-02-13T05:27:37.170Z,1.90
2023-02-13T05:30:04.854Z,1.73
2023-02-13T05:32:32.405Z,1.67
2023-02-13T05:34:59.971Z,1.95
2023-02-13T05:37:28.261Z,1.80
2023-02-13T05:39:55.763Z,2.10
2023-02-13T05:42:23.218Z,2.35
2023-02-13T05:44:50.865Z,2.10
2023-02-13T05:47:19.929Z,1.88
2023-02-13T05:49:47.312Z,2.33
2023-02-13T05:52:17.435Z,1.90
2023-02-13T05:54:44.979Z,1.80
2023-02-13T05:57:12.367Z,2.10
2023-02-13T05:59:40.105Z,2.08
2023-02-13T06:02:09.956Z,2.22
2023-02-13T06:04:37.545Z,1.95
2023-02-13T06:07:05.150Z,2.95
2023-02-13T06:09:32.661Z,1.77
2023-02-13T06:12:00.100Z,2.10
2023-02-13T06:14:30.602Z,2.10
2023-02-13T06:17:00.562Z,2.75
2023-02-13T06:19:28.040Z,1.63
2023-02-13T06:21:58.130Z,1.80
2023-02-13T06:24:25.910Z,1.85
2023-02-13T06:26:53.341Z,1.75
2023-02-13T06:29:20.810Z,2.33
2023-02-13T06:31:50.589Z,1.98
2023-02-13T06:34:18.074Z,1.92
2023-02-13T06:36:45.603Z,3.53
2023-02-13T06:39:13.241Z,2.20
2023-02-13T06:41:40.763Z,2.17
2023-02-13T06:44:08.515Z,2.08
2023-02-13T06:46:36.143Z,1.92
2023-02-13T06:49:09.802Z,2.15
2023-02-13T06:51:37.332Z,1.80
2023-02-13T06:54:04.729Z,2.58
2023-02-13T06:56:33.088Z,1.60
2023-02-13T06:59:00.620Z,1.95
2023-02-13T07:01:28.274Z,1.92
2023-02-13T07:03:56.299Z,1.90
2023-02-13T07:06:23.753Z,2.08
2023-02-13T07:08:55.490Z,1.80
2023-02-13T07:11:25.625Z,3.60
2023-02-13T07:14:00.063Z,1.95
2023-02-13T07:16:31.414Z,2.05
2023-02-13T07:18:58.935Z,1.63
2023-02-13T07:21:26.680Z,1.65
2023-02-13T07:23:54.241Z,2.47
2023-02-13T07:26:21.966Z,2.10
2023-02-13T07:28:54.773Z,2.03
2023-02-13T07:31:27.249Z,2.03
2023-02-13T07:33:54.981Z,1.73
2023-02-13T07:36:25.142Z,1.63
2023-02-13T07:38:54.732Z,2.05
2023-02-13T07:41:22.338Z,2.00
2023-02-13T07:43:50.260Z,1.80
2023-02-13T07:46:17.694Z,1.45
2023-02-13T07:48:45.204Z,2.20
2023-02-13T07:51:12.698Z,1.65
2023-02-13T07:53:40.272Z,1.90
2023-02-13T07:56:08.029Z,2.45
2023-02-13T07:58:40.259Z,1.85
2023-02-13T08:01:12.182Z,1.60
2023-02-13T08:03:40.108Z,1.70
2023-02-13T08:06:08.199Z,1.65
2023-02-13T08:08:40.795Z,4.57
2023-02-13T08:11:46.386Z,2.40
2023-02-13T08:14:14.549Z,1.70
2023-02-13T08:16:42.366Z,2.30
2023-02-13T08:19:10.249Z,1.95
2023-02-13T08:21:47.172Z,1.90
2023-02-13T08:24:14.726Z,2.28
2023-02-13T08:26:42.376Z,2.30
2023-02-13T08:29:11.571Z,2.47
2023-02-13T08:31:39.137Z,2.83
2023-02-13T08:34:10.265Z,2.20
2023-02-13T08:36:38.317Z,2.38
2023-02-13T08:39:06.196Z,2.33
2023-02-13T08:41:34.269Z,2.70
2023-02-13T08:44:02.149Z,2.30
2023-02-13T08:46:31.069Z,2.13
2023-02-13T08:49:09.067Z,2.20
2023-02-13T08:51:37.486Z,2.80
2023-02-13T08:54:05.047Z,2.75
2023-02-13T08:56:32.619Z,3.05
2023-02-13T08:59:07.358Z,2.90
2023-02-13T09:01:43.498Z,2.13
2023-02-13T09:04:16.193Z,3.05
2023-02-13T09:06:43.890Z,2.60
2023-02-13T09:09:13.716Z,2.63
2023-02-13T09:11:44.532Z,2.58
2023-02-13T09:14:11.958Z,2.53
2023-02-13T09:16:51.652Z,2.97
2023-02-13T09:19:20.396Z,2.67
2023-02-13T09:21:47.880Z,2.50
2023-02-13T09:24:15.379Z,4.90
2023-02-13T09:26:42.853Z,3.05
2023-02-13T09:29:11.335Z,3.20
2023-02-13T09:31:38.862Z,3.40
2023-02-13T09:34:06.370Z,2.45
2023-02-13T09:36:34.144Z,2.78
2023-02-13T09:39:01.819Z,3.30
2023-02-13T09:41:33.848Z,2.85
2023-02-13T09:44:03.349Z,3.80
2023-02-13T09:46:38.600Z,3.38
2023-02-13T09:49:13.260Z,5.28
2023-02-13T09:51:42.119Z,3.60
2023-02-13T09:54:13.889Z,3.15
2023-02-13T09:56:52.881Z,6.47
2023-02-13T09:59:23.540Z,3.63
2023-02-13T10:01:55.610Z,4.55
2023-02-13T10:04:32.015Z,3.97
2023-02-13T10:07:28.527Z,7.28
2023-02-13T10:10:02.489Z,3.88
2023-02-13T10:12:46.535Z,6.07
2023-02-13T10:15:31.909Z,3.70
2023-02-13T10:18:01.806Z,3.97
2023-02-13T10:20:47.906Z,3.95
2023-02-13T10:23:30.520Z,4.55
2023-02-13T10:26:01.941Z,4.67
2023-02-13T10:28:32.790Z,4.72
2023-02-13T10:31:14.966Z,4.45
2023-02-13T10:33:55.852Z,4.13
2023-02-13T10:36:28.210Z,4.15
2023-02-13T10:39:01.948Z,5.85
2023-02-13T10:41:43.242Z,5.18
2023-02-13T10:44:23.730Z,3.40
2023-02-13T10:47:10.241Z,3.78
2023-02-13T10:50:00.221Z,3.80
2023-02-13T10:52:39.821Z,4.55
2023-02-13T10:55:28.738Z,4.45
2023-02-13T10:58:01.071Z,4.15
2023-02-13T11:00:46.913Z,7.55
2023-02-13T11:03:20.837Z,6.00
2023-02-13T11:05:50.792Z,6.95
2023-02-13T11:08:25.942Z,6.65
2023-02-13T11:10:53.620Z,4.47
2023-02-13T11:13:22.396Z,4.75
2023-02-13T11:16:19.447Z,4.30
2023-02-13T11:18:50.184Z,5.10
2023-02-13T11:21:21.009Z,4.25
2023-02-13T11:23:51.920Z,5.22
2023-02-13T11:26:23.915Z,4.13
2023-02-13T11:28:51.515Z,4.65
2023-02-13T11:31:24.722Z,4.00
2023-02-13T11:36:25.037Z,4.07
2023-02-13T11:39:06.244Z,3.10
2023-02-13T11:41:42.069Z,3.80
2023-02-13T11:44:26.473Z,3.58
2023-02-13T11:46:55.715Z,2.97
2023-02-13T11:49:30.810Z,3.85
2023-02-13T11:52:00.741Z,3.50
2023-02-13T11:54:42.382Z,3.58
2023-02-13T11:57:18.680Z,3.95
2023-02-13T11:59:47.266Z,3.60
2023-02-13T12:02:22.147Z,3.58
2023-02-13T12:04:51.219Z,3.70
2023-02-13T12:07:28.141Z,5.47
2023-02-13T12:10:03.690Z,3.78
2023-02-13T12:15:03.796Z,3.10
2023-02-13T12:17:32.882Z,3.83
2023-02-13T12:20:01.063Z,3.95
2023-02-13T12:22:45.279Z,4.13
2023-02-13T12:25:33.878Z,4.72
2023-02-13T12:28:08.449Z,4.10
2023-02-13T12:30:45.558Z,3.38
2023-02-13T12:33:27.678Z,3.78
2023-02-13T12:36:14.740Z,4.50
2023-02-13T12:38:47.792Z,3.63
2023-02-13T12:41:21.211Z,4.03
2023-02-13T12:44:27.958Z,3.67
2023-02-13T12:47:16.840Z,4.43
2023-02-13T12:49:52.736Z,3.97
2023-02-13T12:52:23.379Z,3.47
2023-02-13T12:54:55.457Z,3.70
2023-02-13T12:57:41.700Z,3.78
2023-02-13T13:00:17.250Z,3.85
2023-02-13T13:02:58.413Z,3.83
2023-02-13T13:05:33.781Z,3.83
2023-02-13T13:08:16.842Z,3.95
2023-02-13T13:10:45.173Z,4.03
2023-02-13T13:13:24.251Z,3.78
2023-02-13T13:15:55.436Z,3.22
2023-02-13T13:18:32.636Z,4.03
2023-02-13T13:21:18.784Z,3.35
2023-02-13T13:23:59.931Z,3.90
2023-02-13T13:26:27.574Z,4.13
2023-02-13T13:28:56.747Z,3.30
2023-02-13T13:31:26.484Z,3.20
2023-02-13T13:33:58.705Z,3.42
2023-02-13T13:36:35.694Z,3.30
2023-02-13T13:39:04.624Z,9.02
2023-02-13T13:41:42.826Z,8.38
2023-02-13T13:44:10.586Z,3.60
2023-02-13T13:46:56.632Z,2.80
2023-02-13T13:49:37.404Z,4.65
2023-02-13T13:52:23.750Z,2.60
2023-02-13T13:54:52.804Z,2.78
2023-02-13T13:57:22.808Z,2.40
2023-02-13T14:00:03.663Z,3.10
2023-02-13T14:02:39.616Z,3.58
2023-02-13T14:05:30.712Z,3.20
2023-02-13T14:07:58.217Z,2.45
2023-02-13T14:10:25.731Z,2.13
2023-02-13T14:12:56.503Z,2.00
2023-02-13T14:15:45.765Z,1.92
2023-02-13T14:18:51.449Z,2.20
2023-02-13T14:21:23.266Z,2.40
2023-02-13T14:23:53.519Z,4.13
2023-02-13T14:26:34.417Z,3.03
2023-02-13T14:29:14.475Z,2.45
2023-02-13T14:31:44.091Z,3.20
2023-02-13T14:34:23.293Z,2.50
2023-02-13T14:37:07.473Z,2.30
2023-02-13T14:39:42.380Z,2.42
2023-02-13T14:42:25.823Z,2.15
2023-02-13T14:45:05.405Z,2.55
2023-02-13T14:47:48.247Z,2.67
2023-02-13T14:50:31.252Z,3.78
2023-02-13T14:53:08.877Z,2.55
2023-02-13T14:55:50.891Z,3.17
2023-02-13T14:58:34.570Z,2.75
2023-02-13T15:05:51.981Z,2.95
2023-02-13T15:12:54.599Z,2.42
2023-02-13T15:36:51.173Z,4.60
2023-02-13T15:39:57.982Z,8.00
2023-02-13T15:46:25.509Z,5.28
2023-02-13T15:48:57.835Z,4.22
2023-02-13T15:51:38.911Z,4.75
2023-02-13T15:54:31.651Z,5.05
2023-02-13T15:57:15.982Z,3.65
2023-02-13T16:00:15.394Z,4.53
2023-02-13T16:03:01.428Z,3.65
2023-02-13T16:05:50.506Z,4.00
2023-02-13T16:08:58.151Z,3.85
2023-02-13T16:11:38.574Z,3.90
2023-02-13T16:14:26.699Z,6.97
2023-02-13T16:17:31.965Z,4.03
2023-02-13T16:21:08.348Z,5.13
2023-02-13T16:23:51.425Z,4.20
2023-02-13T16:26:29.536Z,4.97
2023-02-13T16:28:57.683Z,4.22
2023-02-13T16:31:26.137Z,5.25
2023-02-13T16:33:54.475Z,3.60
2023-02-13T16:36:28.186Z,4.03
2023-02-13T16:39:23.593Z,3.33
2023-02-13T16:41:55.778Z,3.60
2023-02-13T16:44:38.580Z,3.90
2023-02-13T16:47:17.518Z,3.40
2023-02-13T16:50:07.525Z,3.65
2023-02-13T16:52:35.311Z,3.85
2023-02-13T16:55:12.415Z,3.65
2023-02-13T16:57:42.159Z,3.60
2023-02-13T17:00:22.248Z,3.92
2023-02-13T17:02:51.150Z,4.20
2023-02-13T17:07:53.216Z,4.35
2023-02-13T17:10:34.138Z,5.22
2023-02-13T17:13:13.584Z,4.18
2023-02-13T17:15:41.943Z,4.13
2023-02-13T17:18:31.765Z,4.30
2023-02-13T17:21:07.611Z,5.85
2023-02-13T17:23:47.504Z,4.80
2023-02-13T17:26:15.298Z,4.25
2023-02-13T17:28:43.402Z,5.32
2023-02-13T17:31:17.205Z,5.18
2023-02-13T17:34:16.317Z,4.50
2023-02-13T17:36:47.759Z,4.72
2023-02-13T17:39:24.516Z,4.20
2023-02-13T17:42:02.509Z,5.18
2023-02-13T17:44:31.626Z,5.43
2023-02-13T17:47:16.599Z,5.30
2023-02-13T17:49:48.332Z,4.47
2023-02-13T17:52:32.073Z,5.75
2023-02-13T17:55:18.164Z,4.80
2023-02-13T17:58:24.803Z,5.82
2023-02-13T18:01:25.665Z,5.18
2023-02-13T18:04:32.155Z,6.13
2023-02-13T18:07:45.011Z,5.13
2023-02-13T18:10:42.376Z,5.45
2023-02-13T18:13:15.321Z,5.32
2023-02-13T18:15:58.106Z,5.38
2023-02-13T18:18:44.225Z,5.65
2023-02-13T18:22:23.969Z,6.22
2023-02-13T18:28:21.861Z,5.38
2023-02-13T18:31:02.833Z,5.63
2023-02-13T18:36:38.714Z,4.93
2023-02-13T18:39:09.885Z,5.30
2023-02-13T18:41:43.586Z,5.03
2023-02-13T18:44:32.081Z,5.45
2023-02-13T18:47:35.938Z,5.10
2023-02-13T18:50:15.050Z,5.57
2023-02-13T18:52:48.045Z,4.93
2023-02-13T18:55:30.734Z,5.70
2023-02-13T18:58:02.641Z,4.47
2023-02-13T19:00:35.342Z,5.95
2023-02-13T19:03:10.027Z,5.72
2023-02-13T19:05:46.474Z,6.00
2023-02-13T19:08:20.383Z,5.50
2023-02-13T19:10:53.903Z,6.50
2023-02-13T19:13:21.886Z,6.35
2023-02-13T19:15:58.804Z,6.10
2023-02-13T19:18:34.202Z,5.43
2023-02-13T19:21:05.057Z,6.18
2023-02-13T19:23:33.208Z,5.85
2023-02-13T19:26:28.025Z,5.82
2023-02-13T19:33:44.115Z,5.70
2023-02-13T19:36:27.847Z,4.80
2023-02-13T19:38:56.505Z,4.80
2023-02-13T19:41:24.339Z,4.93
2023-02-13T19:43:54.731Z,5.40
2023-02-13T19:46:31.950Z,4.90
2023-02-13T19:49:12.951Z,4.45
2023-02-13T19:51:48.475Z,4.13
2023-02-13T19:54:16.277Z,3.53
2023-02-13T19:57:00.405Z,4.03
2023-02-13T19:59:33.011Z,4.75
2023-02-13T20:02:03.227Z,3.63
2023-02-13T20:04:34.489Z,4.95
2023-02-13T20:07:02.152Z,3.20
2023-02-13T20:09:41.809Z,2.95
2023-02-13T20:12:11.838Z,2.92
2023-02-13T20:14:44.131Z,3.15
2023-02-13T20:17:12.175Z,3.10
2023-02-13T20:19:49.319Z,2.95
2023-02-13T20:22:47.489Z,2.28
2023-02-13T20:25:37.094Z,1.83
2023-02-13T20:28:20.413Z,1.88
2023-02-13T20:30:48.233Z,1.92
2023-02-13T20:33:18.895Z,1.92
2023-02-13T20:35:50.327Z,2.10
2023-02-13T20:38:31.169Z,1.60
2023-02-13T20:41:16.806Z,1.30
2023-02-13T20:43:47.284Z,1.77
2023-02-13T20:46:17.955Z,1.70
2023-02-13T20:48:46.210Z,1.50
2023-02-13T20:51:17.241Z,1.60
2023-02-13T20:53:45.299Z,1.60
2023-02-13T20:56:27.157Z,1.48
2023-02-13T20:59:01.140Z,1.45
2023-02-13T21:01:34.613Z,1.70
2023-02-13T21:04:04.883Z,1.30
2023-02-13T21:06:34.142Z,1.67
2023-02-13T21:09:02.260Z,2.10
2023-02-13T21:11:30.117Z,1.70
2023-02-13T21:14:01.181Z,1.70
2023-02-13T21:16:37.357Z,1.50
2023-02-13T21:19:06.933Z,1.55
2023-02-13T21:21:41.058Z,1.97
2023-02-13T21:24:09.563Z,1.65
2023-02-13T21:26:46.685Z,1.20
2023-02-13T21:29:14.199Z,1.30
2023-02-13T21:31:47.520Z,1.40
2023-02-13T21:34:18.295Z,1.20
2023-02-13T21:36:53.098Z,1.02
2023-02-13T21:39:20.650Z,1.27
2023-02-13T21:41:48.124Z,1.00
2023-02-13T21:44:19.040Z,1.40
2023-02-13T21:46:47.050Z,1.33
2023-02-13T21:49:21.309Z,1.20
2023-02-13T21:51:49.183Z,1.75
2023-02-13T21:54:16.914Z,1.30
2023-02-13T21:56:44.856Z,1.10
2023-02-13T21:59:18.332Z,1.30
2023-02-13T22:01:56.137Z,1.10
2023-02-13T22:04:33.350Z,1.17
2023-02-13T22:07:03.786Z,1.10
2023-02-13T22:09:40.569Z,1.20
2023-02-13T22:12:08.515Z,1.20
2023-02-13T22:14:36.001Z,1.30
2023-02-13T22:17:05.920Z,1.40
2023-02-13T22:19:56.702Z,1.20
2023-02-13T22:22:27.417Z,1.40
2023-02-13T22:24:55.062Z,1.20
2023-02-13T22:27:26.244Z,1.30
2023-02-13T22:29:59.560Z,1.38
2023-02-13T22:32:27.133Z,1.35
2023-02-13T22:34:54.738Z,1.52
2023-02-13T22:37:28.771Z,1.50
2023-02-13T22:40:01.928Z,1.30
2023-02-13T22:42:32.073Z,1.30
2023-02-13T22:44:59.617Z,1.60
2023-02-13T22:47:28.414Z,1.70
2023-02-13T22:49:57.109Z,1.70
2023-02-13T22:52:24.703Z,2.17
2023-02-13T22:54:55.362Z,2.00
2023-02-13T22:57:24.907Z,1.90
2023-02-13T23:00:00.236Z,1.85
2023-02-13T23:02:30.207Z,1.60
2023-02-13T23:05:00.750Z,1.55
2023-02-13T23:07:33.328Z,1.60
2023-02-13T23:12:46.681Z,1.33
2023-02-13T23:15:25.937Z,1.83
2023-02-13T23:18:13.587Z,1.20
2023-02-13T23:20:44.319Z,1.45
2023-02-13T23:23:11.912Z,1.77
2023-02-13T23:25:41.656Z,1.25
2023-02-13T23:28:12.236Z,1.20
2023-02-13T23:30:39.973Z,1.20
2023-02-13T23:33:07.521Z,1.50
2023-02-13T23:35:34.932Z,1.13
2023-02-13T23:38:02.414Z,1.10
2023-02-13T23:40:29.815Z,1.00
2023-02-13T23:42:57.413Z,1.20
2023-02-13T23:48:12.004Z,0.85
2023-02-13T23:50:47.974Z,1.00
2023-02-13T23:53:15.429Z,1.13
2023-02-13T23:55:46.049Z,1.10
2023-02-13T23:58:13.439Z,1.30
